Time;durP1;ratioP1;P1;durP2;ratioP2;P2;SDS_P1;SDS_P2;PMS_P1;PMS_P2;Temp;Humidity;BMP_temperature;BMP_pressure;BME280_temperature;BME280_humidity;BME280_pressure;Samples;Min_cycle;Max_cycle;Signal;HPM_P1;HPM_P2
2023/09/10 00:03:50;;;;;;;29.38;19.77;;;;;;;18.04;65.52;101242.13;15742625;28;19920;-75
2023/09/10 00:11:26;;;;;;;28.85;18.65;;;;;;;17.90;65.80;101237.28;15739561;28;20060;-75
2023/09/10 00:18:59;;;;;;;24.02;19.20;;;;;;;17.84;66.03;101253.50;15719803;28;20139;-74
2023/09/10 00:26:40;;;;;;;25.80;18.85;;;;;;;17.67;65.98;101241.75;15680940;28;20056;-74
2023/09/10 00:34:13;;;;;;;25.30;19.02;;;;;;;17.42;67.21;101235.88;15683035;28;20044;-73
2023/09/10 00:41:53;;;;;;;32.20;19.65;;;;;;;17.40;67.35;101235.31;15695732;28;20037;-73
2023/09/10 00:49:27;;;;;;;29.30;19.63;;;;;;;17.34;66.96;101239.81;15712645;28;20049;-74
2023/09/10 00:57:03;;;;;;;24.05;19.35;;;;;;;17.37;66.33;101238.50;15730593;28;20036;-74
2023/09/10 01:04:37;;;;;;;23.63;18.60;;;;;;;17.04;67.38;101229.19;15687729;28;20699;-74
2023/09/10 01:12:18;;;;;;;25.60;18.92;;;;;;;17.15;66.73;101254.63;15705370;28;20045;-74
2023/09/10 01:20:15;;;;;;;22.08;18.33;;;;;;;16.98;67.33;101251.88;15731378;28;20430;-74
2023/09/10 01:27:50;;;;;;;21.60;17.45;;;;;;;16.84;68.04;101259.44;15721275;28;20045;-73
2023/09/10 01:35:34;;;;;;;23.73;19.10;;;;;;;16.94;66.63;101248.81;15721004;28;20044;-74
2023/09/10 01:43:09;;;;;;;24.60;19.98;;;;;;;16.78;67.86;101252.25;15730051;28;20049;-74
2023/09/10 01:50:43;;;;;;;26.52;18.65;;;;;;;16.65;67.91;101261.44;15686982;28;20041;-74
2023/09/10 01:58:17;;;;;;;23.52;18.77;;;;;;;16.68;67.38;101258.25;15686798;28;20047;-71
2023/09/10 02:05:54;;;;;;;26.38;20.52;;;;;;;16.51;67.84;101269.00;15700451;28;20044;-74
2023/09/10 02:13:31;;;;;;;23.25;18.95;;;;;;;16.47;67.69;101261.59;15722688;28;20525;-74
2023/09/10 02:21:09;;;;;;;25.40;20.10;;;;;;;16.39;67.70;101257.34;15746612;28;20057;-76
2023/09/10 02:28:44;;;;;;;28.20;20.95;;;;;;;16.17;67.84;101248.97;15746563;28;20033;-75
2023/09/10 02:36:17;;;;;;;29.48;21.50;;;;;;;16.21;67.90;101246.63;15747204;28;20536;-75
2023/09/10 02:43:52;;;;;;;27.98;22.42;;;;;;;16.24;67.79;101260.53;15711261;28;20383;-75
2023/09/10 02:51:27;;;;;;;24.65;19.73;;;;;;;16.00;68.20;101259.69;15714270;28;20111;-75
2023/09/10 02:59:02;;;;;;;26.40;18.13;;;;;;;15.99;68.24;101262.59;15684842;28;20122;-75
2023/09/10 03:06:35;;;;;;;20.33;16.90;;;;;;;15.95;67.84;101264.16;15689535;28;20132;-75
2023/09/10 03:14:10;;;;;;;;;;;;;;;15.83;69.95;101253.28;15706922;28;20132;-76
2023/09/10 03:21:43;;;;;;;19.60;15.63;;;;;;;15.96;68.26;101255.78;15743196;28;19966;-75
2023/09/10 03:29:18;;;;;;;;;;;;;;;15.71;68.90;101250.53;15807200;28;20494;-75
2023/09/10 03:36:51;;;;;;;19.10;14.90;;;;;;;15.67;68.61;101249.38;15788396;28;20220;-75
2023/09/10 03:44:26;;;;;;;21.42;15.18;;;;;;;15.66;67.70;101249.59;15789370;28;20064;-76
2023/09/10 03:51:59;;;;;;;20.77;15.70;;;;;;;15.45;68.47;101229.28;15788345;28;20093;-74
2023/09/10 03:59:34;;;;;;;20.45;16.17;;;;;;;15.53;68.12;101237.06;15791976;28;20054;-74
2023/09/10 04:07:08;;;;;;;20.65;16.15;;;;;;;15.40;68.40;101239.97;15788671;28;20493;-74
2023/09/10 04:14:42;;;;;;;23.63;17.95;;;;;;;15.39;68.23;101243.69;15775192;28;20135;-74
2023/09/10 04:22:15;;;;;;;20.98;16.98;;;;;;;15.10;69.24;101254.28;15804752;28;20052;-74
2023/09/10 04:29:54;;;;;;;21.42;16.63;;;;;;;15.01;69.24;101256.50;15785029;28;20052;-72
2023/09/10 04:37:28;;;;;;;23.58;16.90;;;;;;;15.00;69.19;101256.69;15785047;28;20048;-74
2023/09/10 04:45:04;;;;;;;20.67;16.45;;;;;;;14.92;68.90;101268.66;15784082;28;20048;-74
2023/09/10 04:52:38;;;;;;;22.15;16.83;;;;;;;15.01;69.16;101266.47;15785095;28;20040;-74
2023/09/10 05:00:13;;;;;;;24.08;17.42;;;;;;;15.00;69.50;101276.44;15784007;28;20082;-74
2023/09/10 05:07:48;;;;;;;22.42;17.85;;;;;;;15.09;68.76;101254.53;15785960;28;20054;-74
2023/09/10 05:15:24;;;;;;;21.55;16.75;;;;;;;15.40;68.76;101285.94;15766433;28;20046;-74
2023/09/10 05:22:57;;;;;;;22.00;17.30;;;;;;;15.72;68.47;101284.69;15800806;28;20494;-74
2023/09/10 05:30:32;;;;;;;21.23;17.83;;;;;;;15.93;68.74;101283.31;15782443;28;20051;-74
2023/09/10 05:38:06;;;;;;;22.27;17.42;;;;;;;16.11;68.35;101293.25;15790341;28;20051;-74
2023/09/10 05:45:41;;;;;;;22.15;19.60;;;;;;;16.35;68.19;101291.38;15781490;28;20048;-74
2023/09/10 05:53:14;;;;;;;22.50;19.15;;;;;;;16.74;67.54;101299.88;15772796;28;20051;-74
2023/09/10 06:00:51;;;;;;;25.02;18.52;;;;;;;16.86;67.71;101294.44;15782797;28;20048;-74
2023/09/10 06:08:25;;;;;;;19.88;17.23;;;;;;;17.07;67.42;101285.69;15785874;28;20113;-75
2023/09/10 06:15:59;;;;;;;23.63;17.95;;;;;;;17.57;66.20;101288.53;15806587;28;20250;-75
2023/09/10 06:23:33;;;;;;;19.70;17.10;;;;;;;17.92;65.86;101305.78;15779370;28;20048;-74
2023/09/10 06:31:10;;;;;;;18.92;16.40;;;;;;;18.34;65.58;101298.88;15769109;28;20072;-74
2023/09/10 06:38:47;;;;;;;20.95;15.88;;;;;;;18.54;65.21;101305.66;15770616;28;20541;-74
2023/09/10 06:46:22;;;;;;;17.02;14.40;;;;;;;19.40;63.35;101306.03;15772114;28;21311;-73
2023/09/10 06:53:58;;;;;;;17.13;14.70;;;;;;;20.14;61.85;101305.38;15795873;28;20048;-73
2023/09/10 07:01:33;;;;;;;16.13;13.20;;;;;;;20.61;60.64;101305.50;15784953;28;20521;-75
2023/09/10 07:09:09;;;;;;;14.18;12.30;;;;;;;20.72;60.32;101309.09;15788183;28;20052;-74
2023/09/10 07:16:48;;;;;;;16.02;11.80;;;;;;;20.55;61.27;101301.06;15794849;28;20135;-74
2023/09/10 07:24:27;;;;;;;13.52;11.85;;;;;;;22.05;60.05;101326.75;15782561;28;20364;-74
2023/09/10 07:32:05;;;;;;;14.13;11.77;;;;;;;22.56;55.06;101323.19;15797829;28;20060;-74
2023/09/10 07:39:38;;;;;;;12.93;10.80;;;;;;;22.78;54.07;101323.69;15803659;28;20558;-75
2023/09/10 07:47:12;;;;;;;13.18;10.18;;;;;;;23.64;52.63;101319.00;15799459;28;20060;-73
2023/09/10 07:54:45;;;;;;;12.10;10.02;;;;;;;24.97;52.56;101326.09;15782515;28;20082;-70
2023/09/10 08:02:21;;;;;;;12.45;9.88;;;;;;;25.01;50.36;101327.13;15796451;28;20521;-73
2023/09/10 08:09:54;;;;;;;13.68;9.65;;;;;;;25.89;49.60;101315.53;15787457;28;20036;-73
2023/09/10 08:17:29;;;;;;;14.65;10.60;;;;;;;26.24;47.74;101323.47;15796228;28;20047;-73
2023/09/10 08:25:04;;;;;;;10.63;9.20;;;;;;;26.84;46.69;101318.81;15801578;28;20043;-73
2023/09/10 08:32:38;;;;;;;10.77;9.23;;;;;;;27.48;43.66;101316.13;15798747;28;20047;-72
2023/09/10 08:40:12;;;;;;;14.30;9.40;;;;;;;27.96;43.00;101316.38;15792059;28;20046;-72
2023/09/10 08:47:49;;;;;;;10.77;8.80;;;;;;;27.39;44.37;101307.78;15799957;28;20056;-71
2023/09/10 08:55:22;;;;;;;12.48;8.98;;;;;;;28.09;42.46;101311.94;15781845;28;20050;-73
2023/09/10 09:02:57;;;;;;;12.32;8.57;;;;;;;29.28;40.55;101304.84;15787374;28;20559;-74
2023/09/10 09:10:33;;;;;;;9.05;8.02;;;;;;;29.55;39.38;101307.34;15754224;28;20043;-74
2023/09/10 09:18:09;;;;;;;8.88;7.35;;;;;;;30.16;36.70;101305.34;15776579;28;20107;-74
2023/09/10 09:25:42;;;;;;;9.48;6.93;;;;;;;29.71;36.89;101300.19;15770855;28;20105;-74
2023/09/10 09:33:17;;;;;;;12.00;7.20;;;;;;;31.08;36.76;101304.06;15780906;28;20047;-74
2023/09/10 09:40:50;;;;;;;7.97;6.60;;;;;;;30.88;36.38;101298.13;15786166;28;20040;-74
2023/09/10 09:48:25;;;;;;;7.80;6.18;;;;;;;31.10;35.29;101296.19;15767315;28;20040;-74
2023/09/10 09:56:00;;;;;;;10.70;6.43;;;;;;;32.20;34.37;101296.78;15776959;28;20072;-72
2023/09/10 10:03:34;;;;;;;9.77;6.28;;;;;;;31.29;36.16;101295.78;15778528;28;20060;-74
2023/09/10 10:11:07;;;;;;;7.55;6.03;;;;;;;30.87;34.56;101290.97;15753273;28;20052;-74
2023/09/10 10:18:42;;;;;;;8.95;6.78;;;;;;;33.06;31.30;101288.53;15770636;28;20508;-72
2023/09/10 10:26:17;;;;;;;7.90;6.13;;;;;;;34.19;28.48;101281.94;15754521;28;20379;-75
2023/09/10 10:34:03;;;;;;;7.10;6.10;;;;;;;32.63;31.02;101249.03;15775508;28;20048;-74
2023/09/10 10:41:40;;;;;;;7.22;5.22;;;;;;;33.26;30.49;101265.34;15751737;28;20246;-74
2023/09/10 10:49:15;;;;;;;12.57;5.55;;;;;;;34.06;28.35;101269.25;15787417;28;20040;-75
2023/09/10 10:56:48;;;;;;;7.47;5.07;;;;;;;34.36;25.57;101258.47;15773000;28;20050;-74
2023/09/10 11:04:28;;;;;;;11.70;5.60;;;;;;;31.35;29.73;101256.41;15763515;28;20521;-75
2023/09/10 11:12:07;;;;;;;8.15;5.28;;;;;;;32.05;28.50;101248.28;15776354;28;20036;-74
2023/09/10 11:19:46;;;;;;;7.15;4.63;;;;;;;34.66;24.87;101251.28;15777193;28;20032;-75
2023/09/10 11:27:20;;;;;;;7.43;4.47;;;;;;;34.13;26.49;101250.72;15776226;28;20047;-74
2023/09/10 11:35:24;;;;;;;6.38;4.70;;;;;;;36.12;23.63;101238.81;15767035;28;20052;-73
2023/09/10 11:42:58;;;;;;;8.98;4.20;;;;;;;36.09;23.97;101240.34;15782091;28;20049;-75
2023/09/10 11:50:34;;;;;;;9.38;4.63;;;;;;;34.14;27.03;101243.19;15794833;28;20047;-75
2023/09/10 11:58:07;;;;;;;4.88;4.30;;;;;;;33.06;26.40;101242.06;15799043;28;20048;-74
2023/09/10 12:05:43;;;;;;;7.82;4.32;;;;;;;35.60;24.06;101229.84;15791789;28;20060;-75
2023/09/10 12:13:19;;;;;;;6.35;4.38;;;;;;;34.18;25.67;101230.97;15796965;28;20048;-75
2023/09/10 12:20:54;;;;;;;5.10;4.22;;;;;;;35.15;24.54;101228.50;15798986;28;20596;-75
2023/09/10 12:28:27;;;;;;;5.45;4.00;;;;;;;35.59;24.10;101221.84;15798105;28;20044;-76
2023/09/10 12:36:02;;;;;;;8.02;4.30;;;;;;;36.83;21.65;101222.38;15796934;28;20136;-73
2023/09/10 12:43:38;;;;;;;4.45;3.92;;;;;;;35.74;22.29;101229.31;15766555;28;20044;-75
2023/09/10 12:51:14;;;;;;;7.68;4.20;;;;;;;36.85;21.29;101225.63;15765734;28;20527;-75
2023/09/10 12:58:51;;;;;;;8.02;4.20;;;;;;;36.20;23.00;101218.19;15770992;28;20036;-74
2023/09/10 13:06:26;;;;;;;5.72;3.90;;;;;;;36.08;21.78;101226.75;15809465;28;20046;-74
2023/09/10 13:14:01;;;;;;;8.13;4.20;;;;;;;35.33;23.95;101212.13;15768385;28;20052;-75
2023/09/10 13:21:35;;;;;;;7.47;4.43;;;;;;;34.68;22.57;101220.25;15779252;28;20775;-75
2023/09/10 13:29:09;;;;;;;8.52;4.20;;;;;;;35.50;23.71;101208.13;15747678;28;20456;-75
2023/09/10 13:36:43;;;;;;;5.15;3.50;;;;;;;35.82;22.21;101200.34;15769680;28;20135;-75
2023/09/10 13:44:16;;;;;;;5.55;3.50;;;;;;;36.71;21.65;101209.44;15786652;28;20044;-74
2023/09/10 13:51:53;;;;;;;5.10;3.85;;;;;;;35.30;22.70;101214.84;15759602;28;20044;-75
2023/09/10 13:59:29;;;;;;;7.35;4.05;;;;;;;34.30;23.62;101204.97;15797336;28;20063;-72
2023/09/10 14:07:04;;;;;;;5.30;4.20;;;;;;;32.62;25.42;101208.50;15799483;28;20028;-74
2023/09/10 14:14:37;;;;;;;10.25;4.45;;;;;;;32.48;26.50;101199.72;15786226;28;20044;-74
2023/09/10 14:22:11;;;;;;;5.03;4.43;;;;;;;31.65;27.00;101207.16;15798946;28;20052;-74
2023/09/10 14:29:44;;;;;;;5.80;4.18;;;;;;;32.02;26.44;101190.63;15781291;28;20040;-72
2023/09/10 14:37:18;;;;;;;7.40;4.65;;;;;;;32.09;26.28;101190.06;15797656;28;20518;-71
2023/09/10 14:44:52;;;;;;;8.48;4.50;;;;;;;32.04;26.81;101193.06;15803763;28;20064;-71
2023/09/10 14:52:26;;;;;;;10.00;4.60;;;;;;;31.39;28.14;101189.97;15802846;28;20421;-71
2023/09/10 14:59:59;;;;;;;5.65;4.20;;;;;;;30.97;30.73;101187.19;15803347;28;20049;-72
2023/09/10 15:07:33;;;;;;;7.57;4.50;;;;;;;31.33;28.74;101181.03;15802826;28;20090;-72
2023/09/10 15:15:08;;;;;;;6.00;4.30;;;;;;;31.31;29.24;101176.97;15800103;28;20068;-72
2023/09/10 15:22:42;;;;;;;5.93;4.70;;;;;;;31.27;30.99;101178.78;15807419;28;20039;-72
2023/09/10 15:30:16;;;;;;;10.02;4.70;;;;;;;31.06;28.30;101178.78;15805157;28;20035;-72
2023/09/10 15:37:50;;;;;;;5.75;4.70;;;;;;;31.13;31.19;101176.28;15778433;28;20131;-72
2023/09/10 15:45:24;;;;;;;6.80;5.07;;;;;;;31.03;32.59;101171.97;15799836;28;20463;-73
2023/09/10 15:52:59;;;;;;;12.95;9.70;;;;;;;30.89;33.10;101165.88;15806250;28;20051;-72
2023/09/10 16:00:33;;;;;;;6.60;4.97;;;;;;;30.85;32.66;101165.72;15809735;28;20040;-72
2023/09/10 16:08:07;;;;;;;5.53;4.88;;;;;;;30.35;35.31;101162.91;15797246;28;20047;-72
2023/09/10 16:15:41;;;;;;;5.13;4.60;;;;;;;30.24;35.81;101160.53;15804224;28;20047;-72
2023/09/10 16:23:17;;;;;;;13.05;8.93;;;;;;;30.05;36.03;101162.88;15805714;28;20533;-73
2023/09/10 16:30:51;;;;;;;10.23;8.25;;;;;;;29.69;37.74;101172.41;15821698;28;20555;-72
2023/09/10 16:38:26;;;;;;;10.20;5.97;;;;;;;29.20;38.49;101173.75;15795566;28;20040;-73
2023/09/10 16:45:59;;;;;;;6.93;5.53;;;;;;;29.15;39.43;101190.50;15815677;28;20455;-74
2023/09/10 16:53:35;;;;;;;8.68;6.07;;;;;;;29.11;38.63;101184.81;15809395;28;20513;-73
2023/09/10 17:01:17;;;;;;;8.40;6.28;;;;;;;28.80;39.60;101184.09;15811073;28;20044;-72
2023/09/10 17:08:54;;;;;;;8.57;6.72;;;;;;;28.35;41.11;101181.53;15791648;28;20243;-73
2023/09/10 17:16:27;;;;;;;9.18;6.28;;;;;;;27.92;42.71;101176.59;15802198;28;20048;-71
2023/09/10 17:24:02;;;;;;;7.85;5.70;;;;;;;27.40;43.87;101170.72;15782767;28;20052;-72
2023/09/10 17:31:39;;;;;;;9.27;6.43;;;;;;;26.86;45.97;101167.84;15809926;28;20046;-71
2023/09/10 17:39:13;;;;;;;8.73;6.60;;;;;;;26.47;46.59;101170.31;15795865;28;20101;-71
2023/09/10 17:46:49;;;;;;;9.77;6.93;;;;;;;26.17;47.29;101180.78;15807146;28;20085;-71
2023/09/10 17:54:27;;;;;;;10.25;7.07;;;;;;;25.81;48.89;101178.69;15799008;28;20044;-72
2023/09/10 18:02:03;;;;;;;15.67;8.13;;;;;;;25.36;50.42;101181.03;15782406;28;20105;-74
2023/09/10 18:09:39;;;;;;;9.40;7.03;;;;;;;25.12;49.82;101181.13;15806066;28;20078;-72
2023/09/10 18:17:13;;;;;;;10.15;7.28;;;;;;;24.77;50.39;101174.19;15791815;28;20051;-72
2023/09/10 18:24:47;;;;;;;11.40;7.50;;;;;;;24.53;50.77;101187.97;15797856;28;20040;-71
2023/09/10 18:32:21;;;;;;;11.70;7.70;;;;;;;24.32;51.70;101179.09;15807985;28;20044;-72
2023/09/10 18:39:55;;;;;;;12.18;7.97;;;;;;;24.55;52.16;101191.22;15811466;28;20422;-72
2023/09/10 18:47:28;;;;;;;10.45;8.15;;;;;;;24.89;51.49;101193.78;15787723;28;20576;-72
2023/09/10 18:55:02;;;;;;;12.75;10.48;;;;;;;24.69;51.65;101192.13;15809911;28;20048;-72
2023/09/10 19:02:36;;;;;;;17.85;10.32;;;;;;;24.19;52.41;101191.56;15800163;28;20445;-72
2023/09/10 19:10:11;;;;;;;16.65;9.85;;;;;;;23.77;53.84;101196.94;15810645;28;20050;-72
2023/09/10 19:17:44;;;;;;;13.55;10.25;;;;;;;23.39;54.55;101199.41;15813153;28;20052;-72
2023/09/10 19:25:20;;;;;;;16.50;10.80;;;;;;;23.05;56.18;101193.88;15830034;28;20513;-72
2023/09/10 19:32:57;;;;;;;15.35;11.63;;;;;;;22.85;56.99;101192.03;15804505;28;20044;-72
2023/09/10 19:40:31;;;;;;;17.13;12.18;;;;;;;22.62;57.87;101193.50;15850903;28;20463;-73
2023/09/10 19:48:06;;;;;;;15.45;11.30;;;;;;;22.40;58.99;101200.13;15808401;28;20105;-72
2023/09/10 19:55:40;;;;;;;17.23;12.02;;;;;;;22.28;59.54;101204.25;15813213;28;20097;-75
2023/09/10 20:03:13;;;;;;;21.02;10.75;;;;;;;22.08;59.42;101196.91;15825993;28;20094;-74
2023/09/10 20:11:00;;;;;;;17.42;11.45;;;;;;;21.99;59.83;101190.34;15841190;22;20346;-52
2023/09/10 20:18:33;;;;;;;15.50;10.43;;;;;;;21.82;60.46;101186.00;15828755;28;20412;-50
2023/09/10 20:26:10;;;;;;;15.80;10.52;;;;;;;21.52;61.01;101181.34;15831703;22;20053;-52
2023/09/10 20:33:49;;;;;;;14.95;9.70;;;;;;;21.42;61.64;101196.91;15759609;28;20037;-51
2023/09/10 20:41:23;;;;;;;13.55;10.65;;;;;;;21.31;62.05;101193.34;15716151;28;20386;-51
2023/09/10 20:48:56;;;;;;;13.45;10.38;;;;;;;21.24;61.25;101196.31;15782159;28;20050;-51
2023/09/10 20:56:30;;;;;;;17.70;10.48;;;;;;;21.15;61.41;101204.19;15794643;28;20037;-50
2023/09/10 21:04:06;;;;;;;19.15;11.13;;;;;;;20.98;62.09;101202.78;15778588;28;20467;-51
2023/09/10 21:11:40;;;;;;;12.48;10.23;;;;;;;20.84;62.57;101197.84;15747064;28;20036;-49
2023/09/10 21:19:13;;;;;;;17.65;11.10;;;;;;;20.73;62.66;101193.44;15743082;28;20050;-50
2023/09/10 21:26:48;;;;;;;16.02;11.27;;;;;;;20.61;62.95;101190.94;15802097;28;20048;-50
2023/09/10 21:34:40;;;;;;;16.25;11.60;;;;;;;20.49;63.29;101193.06;15781427;28;20455;-51
2023/09/10 21:42:14;;;;;;;15.90;11.60;;;;;;;20.36;63.65;101186.13;15786920;28;20048;-51
2023/09/10 21:49:47;;;;;;;20.08;11.57;;;;;;;20.32;63.45;101182.28;15802812;28;20105;-48
2023/09/10 21:57:24;;;;;;;16.00;11.48;;;;;;;20.23;63.42;101185.78;15802019;28;20124;-48
2023/09/10 22:04:57;;;;;;;13.38;11.65;;;;;;;20.01;63.68;101178.59;15783818;28;20093;-50
2023/09/10 22:12:32;;;;;;;14.57;11.63;;;;;;;20.10;62.93;101170.75;15788174;28;20040;-52
2023/09/10 22:20:08;;;;;;;14.60;11.00;;;;;;;19.75;63.40;101163.13;15813161;28;20040;-50
2023/09/10 22:27:44;;;;;;;15.05;12.25;;;;;;;19.86;63.56;101164.84;15793894;28;20492;-48
2023/09/10 22:35:17;;;;;;;13.98;11.45;;;;;;;19.75;63.82;101161.22;15809513;28;20043;-48
2023/09/10 22:43:05;;;;;;;;;;;;;;;19.59;64.77;101165.72;15811984;28;20055;-51
2023/09/10 22:50:39;;;;;;;14.25;11.48;;;;;;;19.36;64.42;101161.44;15810208;28;20505;-50
2023/09/10 22:58:13;;;;;;;14.52;11.82;;;;;;;19.31;64.73;101172.28;15801885;28;20070;-50
2023/09/10 23:05:47;;;;;;;;;;;;;;;19.16;65.55;101165.84;15811303;28;20090;-51
2023/09/10 23:13:23;;;;;;;16.67;11.73;;;;;;;19.16;65.46;101165.84;15804935;28;20281;-50
2023/09/10 23:20:57;;;;;;;;;;;;;;;19.01;65.72;101161.06;15808850;28;20136;-48
2023/09/10 23:28:30;;;;;;;14.35;12.27;;;;;;;18.92;65.78;101162.59;15808449;28;20019;-50
2023/09/10 23:36:05;;;;;;;15.77;12.80;;;;;;;18.80;66.48;101168.19;15787768;28;20114;-50
2023/09/10 23:43:42;;;;;;;15.10;12.55;;;;;;;18.66;66.53;101154.13;15808643;28;20127;-50
2023/09/10 23:51:16;;;;;;;16.20;12.63;;;;;;;18.63;66.45;101159.25;15778838;28;20103;-53
2023/09/10 23:58:49;;;;;;;18.80;12.80;;;;;;;18.13;67.74;101154.78;15781764;28;20048;-50
